Time;durP1;ratioP1;P1;durP2;ratioP2;P2;SDS_P1;SDS_P2;PMS_P1;PMS_P2;Temp;Humidity;BMP_temperature;BMP_pressure;BME280_temperature;BME280_humidity;BME280_pressure;Samples;Min_cycle;Max_cycle;Signal;HPM_P1;HPM_P2
2022/08/23 00:02:05;;;;;;;8.70;7.90;;;;;;;17.46;100.00;97470.86;106008;1282;25517;-90
2022/08/23 00:04:50;;;;;;;9.60;8.00;;;;;;;17.51;100.00;97478.11;105762;1282;22568;-91
2022/08/23 00:07:40;;;;;;;8.30;6.90;;;;;;;17.46;100.00;97476.21;106084;1282;24291;-92
2022/08/23 00:10:11;;;;;;;8.30;6.90;;;;;;;17.47;100.00;97474.42;105781;1282;22556;-90
2022/08/23 00:12:41;;;;;;;7.90;7.10;;;;;;;17.51;100.00;97475.55;105588;1280;24843;-90
2022/08/23 00:15:14;;;;;;;7.80;7.00;;;;;;;17.60;100.00;97477.23;105461;1282;22723;-89
2022/08/23 00:17:42;;;;;;;7.10;6.40;;;;;;;17.80;100.00;97479.02;105426;1282;26518;-89
2022/08/23 00:20:13;;;;;;;6.40;5.80;;;;;;;17.84;100.00;97481.70;105390;1282;22593;-90
2022/08/23 00:22:41;;;;;;;7.90;6.20;;;;;;;17.83;100.00;97487.02;105395;1282;22598;-89
2022/08/23 00:25:11;;;;;;;8.10;6.10;;;;;;;17.84;100.00;97484.64;105583;1282;24221;-91
2022/08/23 00:27:40;;;;;;;6.60;5.80;;;;;;;17.89;100.00;97485.69;105670;1282;22614;-90
2022/08/23 00:30:11;;;;;;;8.40;6.40;;;;;;;17.93;100.00;97488.25;105475;1282;23142;-89
2022/08/23 00:32:40;;;;;;;7.80;6.30;;;;;;;18.06;100.00;97489.64;105474;1282;24352;-90
2022/08/23 00:35:10;;;;;;;7.90;6.90;;;;;;;18.17;100.00;97487.65;105549;1282;25520;-91
2022/08/23 00:37:44;;;;;;;5.90;5.30;;;;;;;18.21;100.00;97491.34;105517;1282;24207;-90
2022/08/23 00:40:32;;;;;;;7.20;6.40;;;;;;;18.36;100.00;97497.16;105412;1282;24294;-89
2022/08/23 00:48:56;;;;;;;9.30;7.30;;;;;;;18.21;100.00;97505.67;105504;1282;24836;-91
2022/08/23 00:51:57;;;;;;;7.90;7.10;;;;;;;18.23;100.00;97503.29;105471;1282;24429;-91
2022/08/23 00:54:27;;;;;;;8.30;7.30;;;;;;;18.28;100.00;97503.32;105458;1285;22641;-92
2022/08/23 00:57:00;;;;;;;9.00;7.40;;;;;;;18.37;100.00;97505.84;105658;1282;22811;-91
2022/08/23 00:59:28;;;;;;;8.00;7.20;;;;;;;18.47;100.00;97506.59;105720;1282;23016;-91
2022/08/23 01:01:56;;;;;;;9.50;7.50;;;;;;;18.49;100.00;97505.45;105894;1282;25375;-92
2022/08/23 01:04:30;;;;;;;9.10;7.10;;;;;;;18.50;100.00;97502.12;105709;1282;22546;-92
2022/08/23 01:07:03;;;;;;;9.50;6.90;;;;;;;18.54;100.00;97498.68;105494;1282;22588;-92
2022/08/23 01:09:31;;;;;;;13.40;7.00;;;;;;;18.48;100.00;97495.23;105635;1282;24315;-91
2022/08/23 01:12:08;;;;;;;8.40;7.60;;;;;;;18.43;100.00;97495.80;105604;1282;22829;-91
2022/08/23 01:14:42;;;;;;;7.70;6.60;;;;;;;18.38;100.00;97498.92;105836;1282;22580;-90
2022/08/23 01:17:28;;;;;;;9.90;7.40;;;;;;;18.43;100.00;97499.40;105817;1282;22541;-92
2022/08/23 01:20:06;;;;;;;8.50;5.70;;;;;;;18.40;100.00;97503.48;105729;1282;25429;-90
2022/08/23 01:22:56;;;;;;;6.60;5.80;;;;;;;18.51;100.00;97500.42;105675;1282;22783;-89
2022/08/23 01:25:29;;;;;;;7.60;5.80;;;;;;;18.56;100.00;97500.30;105643;1282;22569;-91
2022/08/23 01:27:59;;;;;;;8.40;6.10;;;;;;;18.58;100.00;97494.55;105611;1282;25359;-90
2022/08/23 01:30:31;;;;;;;6.90;5.50;;;;;;;18.59;100.00;97495.43;105495;1282;25252;-90
2022/08/23 01:33:05;;;;;;;7.20;5.60;;;;;;;18.66;100.00;97494.70;105570;1283;26098;-91
2022/08/23 01:35:44;;;;;;;7.20;5.00;;;;;;;18.67;100.00;97488.63;105472;1282;23104;-89
2022/08/23 01:38:12;;;;;;;8.30;5.30;;;;;;;18.72;100.00;97490.52;105573;1282;24213;-90
2022/08/23 01:40:43;;;;;;;6.70;5.20;;;;;;;18.66;100.00;97494.00;105520;1282;26653;-90
2022/08/23 01:43:14;;;;;;;5.60;4.90;;;;;;;18.60;100.00;97494.20;105567;1282;22763;-89
2022/08/23 01:45:42;;;;;;;7.40;5.20;;;;;;;18.59;100.00;97494.42;105444;1282;22651;-89
2022/08/23 01:48:14;;;;;;;7.50;5.40;;;;;;;18.65;100.00;97500.52;105518;1282;24395;-89
2022/08/23 01:50:42;;;;;;;10.70;5.70;;;;;;;18.74;100.00;97505.23;105524;1282;22844;-89
2022/08/23 01:53:12;;;;;;;8.60;5.20;;;;;;;18.77;100.00;97504.52;105594;1282;22778;-89
2022/08/23 01:55:47;;;;;;;7.50;5.60;;;;;;;18.81;100.00;97500.78;105316;1282;22566;-90
2022/08/23 01:58:17;;;;;;;11.60;5.20;;;;;;;18.78;100.00;97503.61;106206;1282;23855;-88
2022/08/23 02:00:45;;;;;;;12.50;6.00;;;;;;;18.72;100.00;97497.70;107386;1282;22739;-89
2022/08/23 02:03:14;;;;;;;9.30;5.40;;;;;;;18.62;100.00;97501.50;106322;1282;22769;-89
2022/08/23 02:05:44;;;;;;;12.50;6.40;;;;;;;18.53;100.00;97505.05;105734;1282;25475;-89
2022/08/23 02:11:12;;;;;;;7.40;6.00;;;;;;;18.44;100.00;97503.56;105647;1282;26682;-90
2022/08/23 02:13:42;;;;;;;10.70;6.10;;;;;;;18.55;100.00;97500.05;106219;1282;22530;-90
2022/08/23 02:16:11;;;;;;;9.10;5.60;;;;;;;18.62;100.00;97501.87;105953;1282;22664;-89
2022/08/23 02:18:43;;;;;;;8.00;6.20;;;;;;;18.62;100.00;97502.81;105744;1282;22565;-88
2022/08/23 02:21:12;;;;;;;10.50;7.00;;;;;;;18.66;100.00;97505.38;105702;1282;22700;-88
2022/08/23 02:23:40;;;;;;;11.00;8.70;;;;;;;18.60;100.00;97502.70;105622;1282;23336;-88
2022/08/23 02:26:08;;;;;;;11.90;10.70;;;;;;;18.45;100.00;97505.84;105934;1282;22538;-89
2022/08/23 02:28:36;;;;;;;11.90;10.70;;;;;;;18.29;100.00;97512.06;105854;1282;22869;-89
2022/08/23 02:31:05;;;;;;;11.40;10.30;;;;;;;18.20;100.00;97508.77;105699;1282;23785;-89
2022/08/23 02:33:33;;;;;;;9.60;8.60;;;;;;;18.17;100.00;97509.63;105665;1282;24215;-91
2022/08/23 02:36:03;;;;;;;10.90;8.50;;;;;;;18.10;100.00;97513.25;105855;1282;24849;-90
2022/08/23 02:38:31;;;;;;;9.40;8.40;;;;;;;18.11;100.00;97512.48;105409;1283;24414;-90
2022/08/23 02:41:03;;;;;;;11.70;10.20;;;;;;;18.12;100.00;97512.19;105785;1283;22658;-90
2022/08/23 02:43:45;;;;;;;11.10;9.00;;;;;;;18.10;100.00;97513.01;105594;1282;23082;-90
2022/08/23 02:46:29;;;;;;;11.60;9.40;;;;;;;18.09;100.00;97512.67;106206;1283;22564;-91
2022/08/23 02:49:27;;;;;;;11.30;10.20;;;;;;;17.90;100.00;97499.75;105905;1282;22651;-91
2022/08/23 02:51:56;;;;;;;9.40;7.40;;;;;;;18.09;100.00;97520.00;106205;1282;22708;-91
2022/08/23 02:54:26;;;;;;;12.20;9.40;;;;;;;18.27;100.00;97514.45;105719;1282;24009;-92
2022/08/23 02:56:58;;;;;;;10.10;8.80;;;;;;;18.35;100.00;97518.03;105628;1282;23834;-91
2022/08/23 02:59:26;;;;;;;11.40;10.20;;;;;;;18.37;100.00;97521.81;105443;1282;24379;-92
2022/08/23 03:01:54;;;;;;;11.10;9.80;;;;;;;18.31;100.00;97522.64;105590;1282;22538;-91
2022/08/23 03:04:30;;;;;;;11.40;9.60;;;;;;;18.24;100.00;97524.05;105563;1282;23869;-91
2022/08/23 03:06:58;;;;;;;10.30;9.30;;;;;;;18.20;100.00;97522.96;106028;1282;22491;-89
2022/08/23 03:09:27;;;;;;;11.70;9.90;;;;;;;18.16;100.00;97527.38;108179;1282;23011;-88
2022/08/23 03:11:55;;;;;;;14.10;10.00;;;;;;;18.12;100.00;97529.10;106119;1282;22702;-86
2022/08/23 03:14:26;;;;;;;11.40;9.50;;;;;;;18.12;100.00;97532.45;105388;1282;22712;-90
2022/08/23 03:16:55;;;;;;;9.50;8.50;;;;;;;18.14;100.00;97529.21;105405;1282;23947;-90
2022/08/23 03:19:25;;;;;;;11.00;9.80;;;;;;;18.12;100.00;97529.65;105370;1283;22595;-89
2022/08/23 03:21:53;;;;;;;9.00;7.60;;;;;;;18.13;100.00;97528.96;105290;1283;22764;-87
2022/08/23 03:24:22;;;;;;;9.80;8.40;;;;;;;18.15;100.00;97530.88;105438;1282;25481;-87
2022/08/23 03:26:50;;;;;;;9.50;8.00;;;;;;;18.19;100.00;97529.70;105306;1285;22635;-89
2022/08/23 03:29:18;;;;;;;9.00;8.10;;;;;;;18.27;100.00;97529.95;105409;1282;22802;-89
2022/08/23 03:32:06;;;;;;;9.80;8.10;;;;;;;18.39;100.00;97529.96;105460;1282;25648;-90
2022/08/23 03:34:37;;;;;;;11.10;7.80;;;;;;;18.33;100.00;97534.52;105454;1282;22568;-90
2022/08/23 03:37:07;;;;;;;8.20;5.20;;;;;;;18.33;100.00;97537.73;105425;1282;22699;-88
2022/08/23 03:39:35;;;;;;;9.70;6.20;;;;;;;18.40;100.00;97540.73;105415;1282;22628;-90
2022/08/23 03:42:03;;;;;;;10.60;7.30;;;;;;;18.46;100.00;97538.70;105444;1282;25317;-89
2022/08/23 03:44:33;;;;;;;10.50;7.70;;;;;;;18.51;100.00;97538.23;105504;1282;25494;-89
2022/08/23 03:47:01;;;;;;;8.80;7.30;;;;;;;18.44;100.00;97544.73;105425;1282;25435;-91
2022/08/23 03:49:29;;;;;;;9.00;7.40;;;;;;;18.28;100.00;97549.46;105519;1282;22891;-91
2022/08/23 03:51:59;;;;;;;9.30;7.40;;;;;;;18.24;100.00;97549.20;105416;1282;24504;-89
2022/08/23 03:54:29;;;;;;;10.70;7.40;;;;;;;18.33;100.00;97549.09;105429;1282;23107;-90
2022/08/23 03:57:01;;;;;;;9.20;8.20;;;;;;;18.36;100.00;97552.19;105422;1282;22626;-90
2022/08/23 03:59:34;;;;;;;13.30;9.70;;;;;;;18.31;100.00;97553.34;105556;1282;25399;-89
2022/08/23 04:02:03;;;;;;;11.50;8.90;;;;;;;18.22;100.00;97556.80;105475;1282;24261;-89
2022/08/23 04:04:32;;;;;;;12.40;9.10;;;;;;;18.14;100.00;97560.61;105408;1282;25009;-89
2022/08/23 04:07:27;;;;;;;10.70;9.00;;;;;;;18.13;100.00;97560.90;105478;1282;24281;-89
2022/08/23 04:09:57;;;;;;;10.60;9.40;;;;;;;18.17;100.00;97563.87;105461;1282;24216;-91
2022/08/23 04:12:28;;;;;;;11.00;9.10;;;;;;;18.17;100.00;97558.80;105446;1282;25354;-88
2022/08/23 04:14:56;;;;;;;13.60;9.90;;;;;;;18.16;100.00;97561.91;105350;1283;25366;-87
2022/08/23 04:17:25;;;;;;;11.40;10.20;;;;;;;18.26;100.00;97567.17;106621;1282;22608;-89
2022/08/23 04:19:53;;;;;;;12.80;11.40;;;;;;;18.22;100.00;97567.64;106440;1282;23938;-89
2022/08/23 04:22:21;;;;;;;11.60;10.50;;;;;;;18.20;100.00;97568.83;105476;1282;23311;-89
2022/08/23 04:24:49;;;;;;;15.50;13.50;;;;;;;18.12;100.00;97568.91;105515;1282;22599;-86
2022/08/23 04:27:17;;;;;;;17.90;15.70;;;;;;;18.05;100.00;97568.89;105902;1282;25563;-89
2022/08/23 04:29:46;;;;;;;16.10;14.40;;;;;;;17.94;100.00;97567.64;105420;1282;23971;-92
2022/08/23 04:32:14;;;;;;;17.10;15.00;;;;;;;17.86;100.00;97568.33;105439;1282;23965;-89
2022/08/23 04:34:57;;;;;;;16.00;13.90;;;;;;;17.83;100.00;97576.03;105451;1282;25364;-88
2022/08/23 04:37:26;;;;;;;18.90;14.20;;;;;;;17.90;100.00;97575.88;105305;1282;22557;-88
2022/08/23 04:42:42;;;;;;;19.30;16.70;;;;;;;17.92;100.00;97584.65;105329;1283;22598;-87
2022/08/23 04:45:11;;;;;;;19.60;16.40;;;;;;;17.87;100.00;97586.72;105412;1282;25301;-88
2022/08/23 04:47:43;;;;;;;20.80;15.10;;;;;;;17.87;100.00;97583.29;105689;1282;22716;-86
2022/08/23 04:50:12;;;;;;;18.20;16.10;;;;;;;17.90;100.00;97585.06;105379;1282;22589;-91
2022/08/23 04:52:58;;;;;;;22.10;17.90;;;;;;;18.00;100.00;97580.71;105524;1282;24786;-89
2022/08/23 04:55:28;;;;;;;19.50;15.90;;;;;;;17.96;100.00;97586.38;105535;1282;25322;-91
2022/08/23 04:58:07;;;;;;;24.00;18.30;;;;;;;17.93;100.00;97587.79;105518;1282;22697;-91
2022/08/23 05:00:48;;;;;;;21.70;18.30;;;;;;;17.90;100.00;97589.66;105566;1282;22692;-89
2022/08/23 05:03:22;;;;;;;20.50;17.30;;;;;;;17.86;100.00;97592.67;105484;1282;25337;-90
2022/08/23 05:05:52;;;;;;;18.60;16.30;;;;;;;17.87;100.00;97589.98;105449;1282;24296;-91
2022/08/23 05:08:21;;;;;;;21.40;17.10;;;;;;;17.88;100.00;97586.83;105518;1282;23930;-92
2022/08/23 05:10:51;;;;;;;25.30;18.10;;;;;;;17.94;100.00;97587.42;106334;1282;22607;-92
2022/08/23 05:13:20;;;;;;;23.40;17.80;;;;;;;18.00;100.00;97586.54;105929;1283;24259;-92
2022/08/23 05:15:51;;;;;;;20.90;18.60;;;;;;;17.94;100.00;97591.86;106315;1281;22603;-91
2022/08/23 05:18:21;;;;;;;22.20;17.90;;;;;;;17.92;100.00;97594.69;106161;1282;25575;-92
2022/08/23 05:21:06;;;;;;;28.60;21.00;;;;;;;17.86;100.00;97598.53;106558;1282;22557;-92
2022/08/23 05:23:33;;;;;;;25.60;20.30;;;;;;;17.88;100.00;97603.48;106141;1282;24168;-90
2022/08/23 05:26:08;;;;;;;25.10;19.70;;;;;;;17.87;100.00;97603.48;107671;1282;22666;-88
2022/08/23 05:28:43;;;;;;;21.60;19.30;;;;;;;17.86;100.00;97610.61;108255;1282;23842;-92
2022/08/23 05:31:20;;;;;;;22.70;19.20;;;;;;;17.91;100.00;97616.31;107656;1282;22694;-89
2022/08/23 05:33:59;;;;;;;22.10;18.70;;;;;;;17.98;100.00;97618.20;106765;1284;25931;-90
2022/08/23 05:36:44;;;;;;;23.50;18.20;;;;;;;18.09;100.00;97620.95;105768;1284;23888;-91
2022/08/23 05:39:28;;;;;;;22.10;17.20;;;;;;;18.20;100.00;97618.06;105697;1282;23283;-91
2022/08/23 05:42:11;;;;;;;23.60;18.10;;;;;;;18.31;100.00;97623.63;105602;1282;22541;-90
2022/08/23 05:44:39;;;;;;;22.20;18.50;;;;;;;18.41;100.00;97626.64;105653;1282;22623;-91
2022/08/23 05:47:13;;;;;;;20.90;18.80;;;;;;;18.42;100.00;97621.84;105598;1282;25387;-93
2022/08/23 05:50:09;;;;;;;21.40;19.10;;;;;;;18.52;100.00;97618.54;105479;1282;24317;-89
2022/08/23 05:52:39;;;;;;;21.70;19.00;;;;;;;18.58;100.00;97618.91;105778;1284;25377;-89
2022/08/23 05:55:07;;;;;;;20.50;18.50;;;;;;;18.65;100.00;97620.52;106261;1282;22631;-92
2022/08/23 05:58:01;;;;;;;26.60;18.80;;;;;;;18.71;100.00;97621.66;105862;1286;22714;-92
2022/08/23 06:00:29;;;;;;;19.50;16.30;;;;;;;18.76;100.00;97616.33;105469;1286;22708;-91
2022/08/23 06:03:08;;;;;;;18.60;16.60;;;;;;;18.82;100.00;97623.33;105493;1286;24130;-89
2022/08/23 06:05:39;;;;;;;16.20;14.50;;;;;;;18.89;100.00;97627.42;105076;1287;25388;-90
2022/08/23 06:08:08;;;;;;;17.30;15.20;;;;;;;18.94;100.00;97628.08;105590;1284;24260;-91
2022/08/23 06:10:37;;;;;;;17.80;15.40;;;;;;;18.99;100.00;97632.23;105101;1287;25368;-90
2022/08/23 06:13:33;;;;;;;19.00;16.70;;;;;;;19.06;100.00;97632.77;105465;1286;24423;-92
2022/08/23 06:16:04;;;;;;;16.80;15.00;;;;;;;19.10;100.00;97635.56;105462;1286;24233;-91
2022/08/23 06:18:45;;;;;;;26.40;21.20;;;;;;;19.10;100.00;97635.56;105110;1286;24258;-92
2022/08/23 06:21:43;;;;;;;27.70;21.70;;;;;;;19.13;100.00;97638.73;105460;1286;25548;-91
2022/08/23 06:24:12;;;;;;;31.00;27.20;;;;;;;19.12;100.00;97642.70;105397;1284;22870;-90
2022/08/23 06:26:50;;;;;;;34.10;29.40;;;;;;;19.10;100.00;97643.44;105600;1283;26568;-91
2022/08/23 06:29:19;;;;;;;41.40;37.00;;;;;;;19.07;100.00;97648.14;105609;1284;22808;-91
2022/08/23 06:31:52;;;;;;;37.50;33.40;;;;;;;19.00;100.00;97652.30;105658;1284;22897;-91
2022/08/23 06:34:32;;;;;;;33.60;30.00;;;;;;;18.94;100.00;97655.14;106599;1283;22568;-92
2022/08/23 06:37:13;;;;;;;34.70;30.80;;;;;;;19.08;100.00;97660.56;107176;1282;22560;-91
2022/08/23 06:40:03;;;;;;;27.80;23.60;;;;;;;19.19;100.00;97662.89;105632;1282;22549;-90
2022/08/23 06:42:57;;;;;;;29.70;23.60;;;;;;;19.19;100.00;97663.36;105215;1284;25238;-86
2022/08/23 06:45:35;;;;;;;28.60;25.50;;;;;;;19.17;100.00;97669.41;105452;1284;24297;-88
2022/08/23 06:48:03;;;;;;;31.00;25.60;;;;;;;19.13;100.00;97671.52;105405;1286;22654;-89
2022/08/23 06:50:32;;;;;;;26.20;23.50;;;;;;;19.12;100.00;97675.40;105432;1282;23982;-89
2022/08/23 06:53:29;;;;;;;47.20;35.60;;;;;;;19.13;100.00;97676.04;105467;1283;25252;-87
2022/08/23 06:56:23;;;;;;;39.50;33.20;;;;;;;19.18;100.00;97676.06;105357;1282;25348;-88
2022/08/23 06:59:05;;;;;;;30.60;27.40;;;;;;;19.25;100.00;97676.90;105336;1285;22593;-89
2022/08/23 07:01:57;;;;;;;28.40;24.70;;;;;;;19.30;100.00;97673.25;105495;1284;22879;-87
2022/08/23 07:04:37;;;;;;;31.70;23.80;;;;;;;19.36;100.00;97670.30;105421;1286;25388;-87
2022/08/23 07:07:09;;;;;;;26.60;23.90;;;;;;;19.47;100.00;97666.30;105576;1284;25356;-89
2022/08/23 07:09:40;;;;;;;27.60;22.80;;;;;;;19.51;100.00;97667.16;105511;1283;25363;-90
2022/08/23 07:12:11;;;;;;;28.20;21.20;;;;;;;19.55;100.00;97659.65;105525;1284;22632;-88
2022/08/23 07:14:42;;;;;;;25.90;23.20;;;;;;;19.71;100.00;97666.36;105691;1284;25242;-92
2022/08/23 07:17:13;;;;;;;26.60;23.80;;;;;;;19.77;100.00;97669.59;105505;1284;25364;-90
2022/08/23 07:19:42;;;;;;;26.60;23.90;;;;;;;19.72;100.00;97668.02;105760;1283;24309;-92
2022/08/23 07:22:11;;;;;;;29.80;25.50;;;;;;;19.73;100.00;97669.14;105189;1287;25725;-87
2022/08/23 07:24:39;;;;;;;34.50;24.50;;;;;;;19.79;100.00;97668.89;105695;1283;22569;-90
2022/08/23 07:27:08;;;;;;;29.00;24.30;;;;;;;19.82;100.00;97670.67;106316;1282;24260;-90
2022/08/23 07:29:46;;;;;;;30.70;24.90;;;;;;;19.88;100.00;97670.16;106212;1283;22680;-89
2022/08/23 07:32:14;;;;;;;28.60;25.00;;;;;;;19.87;100.00;97667.56;106116;1284;25357;-91
2022/08/23 07:34:46;;;;;;;27.50;23.90;;;;;;;19.90;100.00;97669.10;105809;1284;22814;-93
2022/08/23 07:37:16;;;;;;;24.80;21.80;;;;;;;19.92;100.00;97670.23;106041;1284;22557;-93
2022/08/23 07:39:45;;;;;;;22.60;20.20;;;;;;;19.91;100.00;97675.98;106248;1284;22580;-91
2022/08/23 07:42:13;;;;;;;21.20;18.80;;;;;;;19.90;100.00;97678.24;106242;1283;22510;-87
2022/08/23 07:44:54;;;;;;;23.10;19.60;;;;;;;19.91;100.00;97685.67;107019;1282;23142;-89
2022/08/23 07:47:27;;;;;;;20.00;18.10;;;;;;;20.01;100.00;97686.31;105585;1282;22730;-87
2022/08/23 07:49:57;;;;;;;26.90;22.90;;;;;;;20.14;100.00;97690.20;106443;1283;25374;-86
2022/08/23 07:52:25;;;;;;;28.00;23.80;;;;;;;20.17;100.00;97688.99;105938;1282;23477;-89
2022/08/23 07:54:54;;;;;;;30.80;27.50;;;;;;;20.17;100.00;97694.55;105721;1282;23725;-87
2022/08/23 07:57:42;;;;;;;28.60;25.50;;;;;;;20.15;100.00;97694.04;106000;1283;23519;-87
2022/08/23 08:00:28;;;;;;;26.50;22.80;;;;;;;20.15;100.00;97696.54;106295;1282;25346;-90
2022/08/23 08:03:18;;;;;;;28.90;25.60;;;;;;;20.16;100.00;97701.79;106224;1284;24152;-90
2022/08/23 08:06:50;;;;;;;37.30;25.00;;;;;;;20.26;100.00;97702.64;106980;1282;22546;-88
2022/08/23 08:10:07;;;;;;;24.80;22.40;;;;;;;20.37;100.00;97701.51;106168;1282;22516;-90
2022/08/23 08:12:35;;;;;;;25.10;22.40;;;;;;;20.31;99.78;97698.66;106366;1283;22559;-89
2022/08/23 08:15:10;;;;;;;26.20;22.10;;;;;;;20.29;100.00;97702.14;106469;1282;24268;-86
2022/08/23 08:17:39;;;;;;;21.00;18.70;;;;;;;20.29;99.95;97704.10;107874;1282;22580;-88
2022/08/23 08:20:21;;;;;;;19.10;17.20;;;;;;;20.34;100.00;97707.93;107960;1282;22616;-86
2022/08/23 08:22:55;;;;;;;21.00;18.70;;;;;;;20.37;99.95;97710.33;107755;1283;22986;-86
2022/08/23 08:25:35;;;;;;;21.10;18.80;;;;;;;20.41;100.00;97719.48;107688;1284;22820;-86
2022/08/23 08:28:06;;;;;;;20.70;16.60;;;;;;;20.49;99.91;97717.08;107352;1282;22823;-85
2022/08/23 08:30:42;;;;;;;24.20;18.20;;;;;;;20.61;99.93;97718.37;107714;1282;22625;-86
2022/08/23 08:33:10;;;;;;;20.90;18.80;;;;;;;20.72;99.95;97726.03;107208;1285;22578;-84
2022/08/23 08:35:40;;;;;;;20.80;18.50;;;;;;;20.80;99.83;97724.51;107215;1282;22726;-86
2022/08/23 08:38:09;;;;;;;21.10;19.10;;;;;;;20.82;99.29;97725.95;107964;1282;22896;-87
2022/08/23 08:40:39;;;;;;;21.40;18.60;;;;;;;20.84;99.62;97731.30;108274;1282;22556;-87
2022/08/23 08:43:23;;;;;;;20.10;17.80;;;;;;;20.95;99.32;97730.65;107470;1283;22563;-89
2022/08/23 08:46:04;;;;;;;20.90;18.70;;;;;;;20.99;98.77;97735.08;107430;1282;24292;-87
2022/08/23 08:51:42;;;;;;;19.40;17.10;;;;;;;20.94;97.70;97735.64;108574;1282;22557;-86
2022/08/23 08:54:15;;;;;;;22.10;19.60;;;;;;;20.91;98.63;97733.89;108232;1284;22591;-87
2022/08/23 08:56:52;;;;;;;22.70;18.00;;;;;;;21.00;98.70;97737.13;108477;1284;22595;-85
2022/08/23 08:59:50;;;;;;;20.30;18.30;;;;;;;21.15;98.71;97734.02;108637;1284;22989;-87
2022/08/23 09:02:21;;;;;;;18.70;17.00;;;;;;;21.27;97.95;97735.83;108258;1284;22663;-87
2022/08/23 09:05:16;;;;;;;20.30;18.40;;;;;;;21.36;97.82;97733.77;107713;1284;22540;-88
2022/08/23 09:07:54;;;;;;;20.50;18.50;;;;;;;21.49;98.21;97730.09;107018;1284;25361;-87
2022/08/23 09:10:53;;;;;;;21.00;19.10;;;;;;;21.57;97.23;97736.36;107310;1284;23949;-87
2022/08/23 09:13:39;;;;;;;19.00;17.20;;;;;;;21.55;96.37;97743.14;107632;1284;22634;-87
2022/08/23 09:16:29;;;;;;;18.50;16.50;;;;;;;21.51;96.11;97744.59;107060;1284;24159;-86
2022/08/23 09:18:58;;;;;;;;;;;;;;;21.50;96.11;97753.52;105860;1284;24403;-88
2022/08/23 09:21:28;;;;;;;19.00;17.10;;;;;;;21.45;95.70;97754.86;105719;1284;24407;-89
2022/08/23 09:23:56;;;;;;;20.40;18.20;;;;;;;21.42;96.14;97755.29;105607;1285;23043;-89
2022/08/23 09:26:39;;;;;;;19.00;17.10;;;;;;;21.42;95.51;97753.50;105840;1284;25591;-87
2022/08/23 09:29:22;;;;;;;19.00;16.70;;;;;;;21.36;95.05;97750.67;105590;1284;24374;-86
2022/08/23 09:31:54;;;;;;;18.80;17.00;;;;;;;21.31;95.17;97748.56;105618;1285;22665;-87
2022/08/23 09:34:34;;;;;;;21.10;17.10;;;;;;;21.40;95.39;97748.06;105770;1284;24054;-86
2022/08/23 09:37:15;;;;;;;33.20;27.40;;;;;;;21.53;95.15;97748.46;105670;1284;22568;-87
2022/08/23 09:39:52;;;;;;;30.70;19.60;;;;;;;21.74;95.06;97750.25;105834;1284;25337;-86
2022/08/23 09:42:32;;;;;;;20.60;17.00;;;;;;;21.93;94.17;97753.80;105923;1284;23221;-86
2022/08/23 09:45:24;;;;;;;19.80;17.70;;;;;;;22.19;94.44;97758.77;105912;1284;23638;-89
2022/08/23 09:47:53;;;;;;;17.20;15.50;;;;;;;22.46;93.83;97757.73;105920;1284;22643;-89
2022/08/23 09:50:29;;;;;;;18.90;15.90;;;;;;;22.69;93.13;97762.38;106005;1282;24221;-91
2022/08/23 09:53:05;;;;;;;17.50;15.70;;;;;;;22.91;92.07;97760.23;106482;1282;1596009;-87
2022/08/23 09:55:38;;;;;;;16.70;15.10;;;;;;;22.91;90.66;97759.70;106663;1283;22491;-89
2022/08/23 09:58:25;;;;;;;15.10;13.70;;;;;;;22.90;91.27;97753.73;105651;1283;25545;-88
2022/08/23 10:01:17;;;;;;;18.80;15.80;;;;;;;22.98;91.59;97750.10;105807;1283;22531;-88
2022/08/23 10:04:14;;;;;;;17.70;15.70;;;;;;;23.06;89.58;97752.50;105877;1283;24221;-87
2022/08/23 10:06:45;;;;;;;18.00;15.00;;;;;;;23.00;88.92;97750.58;105972;1282;22582;-89
2022/08/23 10:09:31;;;;;;;18.10;16.40;;;;;;;22.92;88.59;97751.30;105656;1282;25421;-90
2022/08/23 10:12:02;;;;;;;19.30;17.20;;;;;;;22.75;86.04;97754.89;105891;1282;24107;-89
2022/08/23 10:14:34;;;;;;;23.20;19.30;;;;;;;22.52;86.59;97754.17;105810;1282;22511;-88
2022/08/23 10:17:21;;;;;;;19.10;17.30;;;;;;;22.44;86.90;97757.03;105672;1283;22577;-84
2022/08/23 10:20:36;;;;;;;18.00;16.10;;;;;;;22.47;86.63;97757.75;105774;1282;24802;-87
2022/08/23 10:23:38;;;;;;;17.10;15.50;;;;;;;22.38;84.71;97759.88;105236;1290;22917;-91
2022/08/23 10:26:16;;;;;;;20.30;18.20;;;;;;;22.32;85.96;97758.96;105798;1290;22837;-87
2022/08/23 10:32:23;;;;;;;18.00;16.40;;;;;;;22.45;86.00;97762.36;105261;1290;22622;-88
2022/08/23 10:35:28;;;;;;;17.30;15.60;;;;;;;22.42;85.31;97767.05;105528;1290;25362;-89
2022/08/23 10:38:32;;;;;;;19.10;17.20;;;;;;;22.41;85.61;97774.57;104955;1291;25401;-87
2022/08/23 10:41:07;;;;;;;20.00;17.80;;;;;;;22.31;83.80;97774.95;104900;1290;23999;-85
2022/08/23 10:43:53;;;;;;;19.20;17.20;;;;;;;22.17;83.32;97776.79;105093;1290;22571;-83
2022/08/23 10:46:22;;;;;;;20.40;17.90;;;;;;;22.11;84.44;97776.95;104977;1290;22698;-84
2022/08/23 10:48:57;;;;;;;19.60;17.60;;;;;;;22.12;84.55;97778.91;104998;1291;22712;-84
2022/08/23 10:51:35;;;;;;;19.30;17.20;;;;;;;22.09;84.22;97780.92;104802;1290;22630;-85
2022/08/23 10:54:12;;;;;;;19.90;17.80;;;;;;;21.99;84.22;97784.67;105170;1290;22710;-88
2022/08/23 10:56:41;;;;;;;21.30;19.20;;;;;;;21.89;83.88;97788.17;105221;1291;22814;-89
2022/08/23 10:59:19;;;;;;;21.40;19.20;;;;;;;21.73;84.71;97788.70;107424;1284;22735;-87
2022/08/23 11:02:01;;;;;;;18.70;16.90;;;;;;;21.68;85.17;97785.67;106653;1283;25330;-90
2022/08/23 11:04:58;;;;;;;18.70;16.60;;;;;;;21.64;85.78;97785.00;106202;1282;25483;-88
2022/08/23 11:07:41;;;;;;;20.10;18.00;;;;;;;21.66;85.86;97784.09;105916;1282;22731;-87
2022/08/23 11:10:40;;;;;;;20.90;18.00;;;;;;;21.70;86.12;97783.13;105769;1283;24227;-89
2022/08/23 11:13:28;;;;;;;19.70;17.50;;;;;;;21.82;86.15;97784.34;106207;1282;22638;-91
2022/08/23 11:16:21;;;;;;;19.70;17.80;;;;;;;21.96;86.09;97788.41;105656;1285;22572;-89
2022/08/23 11:18:50;;;;;;;21.10;18.90;;;;;;;22.04;85.53;97789.66;105690;1284;25461;-86
2022/08/23 11:21:30;;;;;;;20.40;18.50;;;;;;;22.03;85.27;97785.90;105693;1283;22544;-85
2022/08/23 11:24:01;;;;;;;21.40;19.10;;;;;;;22.09;84.85;97788.22;105724;1283;23354;-85
2022/08/23 11:26:40;;;;;;;19.30;17.30;;;;;;;22.22;85.17;97792.52;105619;1285;23913;-92
2022/08/23 11:29:21;;;;;;;19.50;17.50;;;;;;;22.37;84.91;97794.46;105684;1284;24372;-89
2022/08/23 11:31:59;;;;;;;19.60;17.70;;;;;;;22.46;85.16;97784.95;105618;1282;22615;-88
2022/08/23 11:34:46;;;;;;;;;;;;;;;22.68;83.52;97799.88;105702;1284;22528;-88
2022/08/23 11:37:17;;;;;;;18.20;16.40;;;;;;;22.72;83.46;97798.89;105705;1282;23470;-87
2022/08/23 11:39:57;;;;;;;17.50;15.90;;;;;;;22.79;83.20;97801.69;105714;1282;26515;-89
2022/08/23 11:42:36;;;;;;;17.80;16.00;;;;;;;23.00;83.46;97801.46;105586;1282;25456;-87
2022/08/23 11:45:22;;;;;;;19.70;16.10;;;;;;;23.16;82.08;97793.64;105381;1284;23782;-89
2022/08/23 11:48:26;;;;;;;16.90;15.50;;;;;;;23.22;81.79;97799.00;105661;1284;25362;-85
2022/08/23 11:51:12;;;;;;;16.00;14.50;;;;;;;23.24;80.50;97796.34;105607;1282;24210;-87
2022/08/23 11:53:46;;;;;;;17.90;16.20;;;;;;;23.36;81.98;97794.66;105545;1284;25525;-87
2022/08/23 11:56:22;;;;;;;18.40;16.50;;;;;;;23.58;82.23;97799.31;105563;1282;25238;-87
2022/08/23 11:59:02;;;;;;;17.20;15.40;;;;;;;23.76;81.04;97800.50;105493;1284;22602;-87
2022/08/23 12:01:38;;;;;;;18.10;16.30;;;;;;;23.90;80.22;97799.98;106119;1283;23437;-87
2022/08/23 12:04:25;;;;;;;18.00;16.40;;;;;;;23.95;79.11;97802.20;105614;1285;23215;-92
2022/08/23 12:07:00;;;;;;;16.90;15.10;;;;;;;23.98;79.12;97803.23;105400;1284;24749;-89
2022/08/23 12:09:28;;;;;;;19.20;17.10;;;;;;;23.97;78.28;97802.21;105371;1282;22716;-87